Time;durP1;ratioP1;P1;durP2;ratioP2;P2;SDS_P1;SDS_P2;PMS_P1;PMS_P2;Temp;Humidity;BMP_temperature;BMP_pressure;BME280_temperature;BME280_humidity;BME280_pressure;Samples;Min_cycle;Max_cycle;Signal;HPM_P1;HPM_P2
2021/04/03 00:00:15;;;;;;;;;;;3.30;89.40;;;;;;5090145;28;20426;-56
2021/04/03 00:02:41;;;;;;;;;;;3.30;88.50;;;;;;5081297;28;19912;-56
2021/04/03 00:05:08;;;;;;;;;;;3.30;88.30;;;;;;5089726;28;20003;-54
2021/04/03 00:07:34;;;;;;;;;;;3.30;89.90;;;;;;5075330;28;19923;-53
2021/04/03 00:10:00;;;;;;;;;;;3.20;89.70;;;;;;5092061;28;19915;-55
2021/04/03 00:12:26;;;;;;;;;;;3.20;89.70;;;;;;5093904;28;19992;-56
2021/04/03 00:14:52;;;;;;;;;;;3.20;89.60;;;;;;5078094;28;19913;-56
2021/04/03 00:17:18;;;;;;;;;;;3.20;88.50;;;;;;5080912;28;24083;-55
2021/04/03 00:19:44;;;;;;;;;;;3.20;89.30;;;;;;5084881;28;24076;-55
2021/04/03 00:22:10;;;;;;;;;;;3.10;90.00;;;;;;5085072;28;19916;-55
2021/04/03 00:24:36;;;;;;;;;;;3.20;89.50;;;;;;5074236;28;19925;-54
2021/04/03 00:27:01;;;;;;;;;;;3.10;89.10;;;;;;5086933;28;19916;-55
2021/04/03 00:29:27;;;;;;;;;;;3.20;89.10;;;;;;5087196;28;20389;-55
2021/04/03 00:31:53;;;;;;;;;;;3.10;90.00;;;;;;5093924;28;19920;-56
2021/04/03 00:34:19;;;;;;;;;;;3.00;90.50;;;;;;5079280;28;19951;-55
2021/04/03 00:36:45;;;;;;;;;;;3.00;90.50;;;;;;5074334;28;19920;-53
2021/04/03 00:39:11;;;;;;;;;;;2.90;90.50;;;;;;5089236;28;19956;-55
2021/04/03 00:41:37;;;;;;;;;;;2.90;90.50;;;;;;5077518;28;19912;-54
2021/04/03 00:44:05;;;;;;;;;;;2.90;90.60;;;;;;5081984;28;19958;-55
2021/04/03 00:46:31;;;;;;;;;;;2.90;90.50;;;;;;5093176;28;19916;-56
2021/04/03 00:48:57;;;;;;;;;;;2.90;90.20;;;;;;5092742;28;20253;-55
2021/04/03 00:51:23;;;;;;;;;;;2.90;91.00;;;;;;5084745;28;20265;-54
2021/04/03 00:53:49;;;;;;;;;;;2.80;91.20;;;;;;5085181;28;19913;-55
2021/04/03 00:56:15;;;;;;;;;;;2.70;90.80;;;;;;5073567;28;19966;-55
2021/04/03 00:58:41;;;;;;;;;;;2.60;91.50;;;;;;5087307;28;19935;-53
2021/04/03 01:01:07;;;;;;;;;;;2.60;91.40;;;;;;5083608;28;19935;-55
2021/04/03 01:03:33;;;;;;;;;;;2.60;91.50;;;;;;5080623;28;20381;-53
2021/04/03 01:05:59;;;;;;;;;;;2.60;91.30;;;;;;5079573;28;20322;-53
2021/04/03 01:08:25;;;;;;;;;;;2.80;90.80;;;;;;5091473;28;19922;-55
2021/04/03 01:10:52;;;;;;;;;;;2.80;91.30;;;;;;5084537;28;19961;-55
2021/04/03 01:13:21;;;;;;;;;;;2.70;91.10;;;;;;5090681;28;20379;-55
2021/04/03 01:15:47;;;;;;;;;;;2.70;91.50;;;;;;5083027;28;19915;-55
2021/04/03 01:18:31;;;;;;;;;;;2.70;91.20;;;;;;5085835;28;19916;-54
2021/04/03 01:21:06;;;;;;;;;;;2.70;91.30;;;;;;5082160;28;25086;-54
2021/04/03 01:23:44;;;;;;;;;;;2.70;91.30;;;;;;5080988;28;19912;-55
2021/04/03 01:26:10;;;;;;;;;;;2.70;91.20;;;;;;5091154;28;19916;-55
2021/04/03 01:28:42;;;;;;;;;;;2.60;91.50;;;;;;5092506;28;19919;-54
2021/04/03 01:31:08;;;;;;;;;;;2.50;91.60;;;;;;5082513;28;19923;-55
2021/04/03 01:33:34;;;;;;;;;;;2.50;91.70;;;;;;5089641;28;20329;-54
2021/04/03 01:36:03;;;;;;;;;;;2.50;91.50;;;;;;5072719;28;25080;-55
2021/04/03 01:38:32;;;;;;;;;;;2.50;91.60;;;;;;5081306;28;20368;-55
2021/04/03 01:40:58;;;;;;;;;;;2.40;92.10;;;;;;5092768;28;19908;-51
2021/04/03 01:43:25;;;;;;;;;;;2.40;91.80;;;;;;5077089;28;20524;-54
2021/04/03 01:45:51;;;;;;;;;;;2.40;91.80;;;;;;5072602;28;19908;-54
2021/04/03 01:48:17;;;;;;;;;;;2.30;91.90;;;;;;5088227;28;19951;-53
2021/04/03 01:50:43;;;;;;;;;;;2.30;91.90;;;;;;5072359;28;24081;-54
2021/04/03 01:53:09;;;;;;;;;;;2.20;92.40;;;;;;5077239;28;25088;-52
2021/04/03 01:55:35;;;;;;;;;;;2.10;92.90;;;;;;5072262;28;25119;-52
2021/04/03 01:58:01;;;;;;;;;;;1.90;92.50;;;;;;5088033;28;19920;-55
2021/04/03 02:00:28;;;;;;;;;;;1.80;92.60;;;;;;5082775;28;25077;-55
2021/04/03 02:02:54;;;;;;;;;;;1.80;93.00;;;;;;5078671;28;25066;-54
2021/04/03 02:05:20;;;;;;;;;;;1.90;93.30;;;;;;5071226;28;19915;-55
2021/04/03 02:07:46;;;;;;;;;;;1.90;93.60;;;;;;5089892;28;19912;-55
2021/04/03 02:10:13;;;;;;;;;;;1.90;93.60;;;;;;5076934;28;19912;-55
2021/04/03 02:12:40;;;;;;;;;;;2.00;93.80;;;;;;5088391;28;19912;-55
2021/04/03 02:15:07;;;;;;;;;;;1.90;93.60;;;;;;5080508;28;19926;-55
2021/04/03 02:17:33;;;;;;;;;;;1.90;93.90;;;;;;5081706;28;24094;-55
2021/04/03 02:19:59;;;;;;;;;;;1.90;94.40;;;;;;5079959;28;24091;-54
2021/04/03 02:22:25;;;;;;;;;;;1.80;94.00;;;;;;5090008;28;24075;-56
2021/04/03 02:24:51;;;;;;;;;;;1.90;93.90;;;;;;5090415;28;19915;-54
2021/04/03 02:27:17;;;;;;;;;;;2.00;93.60;;;;;;5072342;28;25128;-55
2021/04/03 02:29:44;;;;;;;;;;;2.00;93.80;;;;;;5085296;28;25124;-55
2021/04/03 02:32:10;;;;;;;;;;;1.90;93.70;;;;;;5091404;28;25082;-55
2021/04/03 02:34:36;;;;;;;;;;;1.90;93.40;;;;;;5081859;28;24068;-55
2021/04/03 02:37:02;;;;;;;;;;;1.90;93.50;;;;;;5077296;28;25149;-54
2021/04/03 02:39:28;;;;;;;;;;;1.90;93.30;;;;;;5089200;28;25058;-55
2021/04/03 02:42:02;;;;;;;;;;;1.90;93.60;;;;;;5078890;28;25088;-55
2021/04/03 02:44:48;;;;;;;;;;;1.90;93.50;;;;;;5078152;28;25140;-54
2021/04/03 02:47:14;;;;;;;;;;;1.90;93.60;;;;;;5078375;28;25113;-54
2021/04/03 02:49:41;;;;;;;;;;;1.90;93.50;;;;;;5079538;28;25060;-52
2021/04/03 02:52:07;;;;;;;;;;;1.90;93.80;;;;;;5071533;28;25142;-55
2021/04/03 02:54:33;;;;;;;;;;;1.80;93.90;;;;;;5076694;28;24103;-55
2021/04/03 02:57:00;;;;;;;;;;;1.80;93.70;;;;;;5072733;28;24062;-54
2021/04/03 02:59:30;;;;;;;;;;;1.70;94.10;;;;;;5084291;28;19927;-53
2021/04/03 03:01:56;;;;;;;;;;;1.80;93.90;;;;;;5089458;28;19935;-55
2021/04/03 03:04:22;;;;;;;;;;;1.80;94.40;;;;;;5081832;28;20364;-54
2021/04/03 03:06:48;;;;;;;;;;;1.90;94.00;;;;;;5089916;28;19908;-54
2021/04/03 03:09:14;;;;;;;;;;;1.90;93.90;;;;;;5080636;28;20373;-52
2021/04/03 03:11:43;;;;;;;;;;;1.80;94.30;;;;;;5075618;28;19908;-53
2021/04/03 03:14:10;;;;;;;;;;;1.70;94.50;;;;;;5081049;28;19908;-53
2021/04/03 03:16:36;;;;;;;;;;;1.70;94.80;;;;;;5082602;28;19922;-52
2021/04/03 03:19:02;;;;;;;;;;;1.70;94.00;;;;;;5080571;28;25152;-52
2021/04/03 03:21:28;;;;;;;;;;;1.60;94.60;;;;;;5074618;28;25152;-55
2021/04/03 03:23:54;;;;;;;;;;;1.50;94.60;;;;;;5074632;28;24078;-54
2021/04/03 03:26:20;;;;;;;;;;;1.40;94.70;;;;;;5072961;28;25086;-52
2021/04/03 03:28:46;;;;;;;;;;;1.50;94.80;;;;;;5071506;28;25092;-53
2021/04/03 03:31:12;;;;;;;;;;;1.50;94.60;;;;;;5065450;28;20403;-53
2021/04/03 03:33:38;;;;;;;;;;;1.40;95.00;;;;;;5070522;28;25091;-55
2021/04/03 03:36:05;;;;;;;;;;;1.30;95.30;;;;;;5069911;28;25064;-54
2021/04/03 03:38:31;;;;;;;;;;;1.30;95.90;;;;;;5079319;28;20518;-52
2021/04/03 03:40:57;;;;;;;;;;;1.40;95.70;;;;;;5093237;28;24080;-52
2021/04/03 03:43:23;;;;;;;;;;;1.30;95.40;;;;;;5084823;28;20331;-54
2021/04/03 03:45:49;;;;;;;;;;;1.40;95.70;;;;;;5078788;28;25072;-54
2021/04/03 03:48:15;;;;;;;;;;;1.40;95.50;;;;;;5081026;28;25099;-52
2021/04/03 03:50:41;;;;;;;;;;;1.40;95.50;;;;;;5089986;28;25108;-52
2021/04/03 03:53:07;;;;;;;;;;;1.30;95.40;;;;;;5093980;28;25081;-54
2021/04/03 03:55:33;;;;;;;726.60;105.80;;;1.30;95.40;;;;;;5076415;28;25141;-53
2021/04/03 03:57:59;;;;;;;723.75;103.55;;;1.30;96.20;;;;;;5072154;28;20402;-52
2021/04/03 04:00:25;;;;;;;;;;;1.30;96.50;;;;;;5074768;28;20423;-52
2021/04/03 04:02:51;;;;;;;;;;;1.20;96.30;;;;;;5092127;28;20416;-54
2021/04/03 04:05:17;;;;;;;;;;;1.20;96.50;;;;;;5091936;28;25128;-54
2021/04/03 04:07:43;;;;;;;;;;;1.10;97.10;;;;;;5093800;28;25150;-54
2021/04/03 04:10:11;;;;;;;;;;;1.10;96.60;;;;;;5081017;28;25061;-55
2021/04/03 04:12:37;;;;;;;;;;;1.10;96.70;;;;;;5089565;28;25115;-52
2021/04/03 04:15:04;;;;;;;;;;;1.10;96.60;;;;;;5088581;28;25318;-54
2021/04/03 04:17:29;;;;;;;;;;;1.20;96.50;;;;;;5091908;28;25064;-52
2021/04/03 04:19:55;;;;;;;;;;;1.10;97.30;;;;;;5093960;28;25075;-55
2021/04/03 04:22:21;;;;;;;;;;;1.10;97.10;;;;;;5083891;28;25077;-54
2021/04/03 04:24:47;;;;;;;;;;;0.90;97.40;;;;;;5084329;28;25125;-54
2021/04/03 04:27:13;;;;;;;;;;;0.90;97.00;;;;;;5079025;28;20732;-55
2021/04/03 04:29:39;;;;;;;;;;;0.80;97.10;;;;;;5080416;28;20795;-50
2021/04/03 04:32:07;;;;;;;;;;;0.80;97.30;;;;;;5071596;28;20827;-52
2021/04/03 04:34:33;;;;;;;718.40;119.10;;;0.80;97.50;;;;;;5087742;28;20444;-52
2021/04/03 04:36:59;;;;;;;718.45;105.55;;;0.90;97.40;;;;;;5072612;28;25176;-51
2021/04/03 04:39:25;;;;;;;;;;;1.00;97.80;;;;;;5080721;28;20421;-54
2021/04/03 04:41:51;;;;;;;505.38;103.25;;;1.00;97.10;;;;;;5069935;28;25100;-54
2021/04/03 04:44:17;;;;;;;363.45;64.80;;;0.90;97.30;;;;;;5092261;28;20189;-55
2021/04/03 04:46:43;;;;;;;273.30;59.13;;;0.90;97.20;;;;;;5080137;28;20178;-51
2021/04/03 04:49:10;;;;;;;339.17;59.15;;;1.00;97.20;;;;;;5083655;28;20544;-52
2021/04/03 04:51:36;;;;;;;477.98;65.05;;;1.10;96.70;;;;;;5087839;28;20189;-51
2021/04/03 04:54:02;;;;;;;630.00;72.80;;;1.00;97.50;;;;;;5073766;28;20182;-54
2021/04/03 04:56:28;;;;;;;;;;;1.00;97.30;;;;;;5068346;28;20398;-52
2021/04/03 04:58:54;;;;;;;;;;;1.00;97.30;;;;;;5074518;28;25083;-51
2021/04/03 05:01:20;;;;;;;;;;;0.90;97.90;;;;;;5090358;28;25065;-54
2021/04/03 05:03:46;;;;;;;;;;;0.90;97.80;;;;;;5070839;28;25067;-54
2021/04/03 05:06:12;;;;;;;;;;;1.00;97.70;;;;;;5078896;28;25089;-52
2021/04/03 05:08:38;;;;;;;;;;;1.00;97.50;;;;;;5085930;28;25079;-54
2021/04/03 05:11:04;;;;;;;;;;;1.00;97.90;;;;;;5065438;28;25172;-53
2021/04/03 05:13:30;;;;;;;;;;;1.10;97.40;;;;;;5075097;28;25099;-53
2021/04/03 05:15:56;;;;;;;;;;;1.30;97.20;;;;;;5069639;28;25123;-55
2021/04/03 05:18:22;;;;;;;;;;;1.40;97.10;;;;;;5073101;28;25176;-53
2021/04/03 05:20:48;;;;;;;;;;;1.40;97.70;;;;;;5072712;28;20437;-52
2021/04/03 05:23:18;;;;;;;;;;;1.40;98.20;;;;;;5068179;28;25114;-52
2021/04/03 05:25:44;;;;;;;;;;;1.50;97.50;;;;;;5076937;28;20873;-53
2021/04/03 05:28:10;;;;;;;;;;;1.60;97.40;;;;;;5071978;28;20434;-54
2021/04/03 05:30:36;;;;;;;;;;;1.70;97.60;;;;;;5064627;28;20830;-53
2021/04/03 05:33:02;;;;;;;;;;;1.80;98.00;;;;;;5062378;28;20444;-52
2021/04/03 05:35:28;;;;;;;;;;;1.80;97.20;;;;;;5069329;28;20407;-53
2021/04/03 05:37:54;;;;;;;541.50;94.15;;;2.00;97.20;;;;;;5065657;28;20465;-51
2021/04/03 05:40:20;;;;;;;158.77;53.22;;;2.00;96.50;;;;;;5080508;28;20213;-53
2021/04/03 05:42:46;;;;;;;251.32;47.03;;;2.10;96.30;;;;;;5073243;28;20178;-52
2021/04/03 05:45:15;;;;;;;522.40;69.50;;;2.20;96.00;;;;;;5055705;28;20618;-53
2021/04/03 05:47:41;;;;;;;;;;;2.30;96.40;;;;;;5070275;28;20396;-51
2021/04/03 05:50:08;;;;;;;;;;;2.30;96.20;;;;;;5071104;28;20508;-52
2021/04/03 05:52:34;;;;;;;;;;;2.40;96.20;;;;;;5077935;28;25187;-51
2021/04/03 05:55:00;;;;;;;;;;;2.50;96.90;;;;;;5076461;28;25154;-52
2021/04/03 05:57:26;;;;;;;;;;;2.60;96.20;;;;;;5072909;28;25150;-54
2021/04/03 05:59:52;;;;;;;;;;;2.60;95.70;;;;;;5082692;28;25083;-57
2021/04/03 06:02:18;;;;;;;;;;;2.70;96.30;;;;;;5084475;28;25091;-56
2021/04/03 06:04:44;;;;;;;;;;;2.80;95.70;;;;;;5080444;28;25104;-58
2021/04/03 06:07:10;;;;;;;;;;;3.00;94.80;;;;;;5081281;28;25452;-56
2021/04/03 06:09:36;;;;;;;;;;;3.00;95.00;;;;;;5079978;28;25069;-56
2021/04/03 06:12:02;;;;;;;;;;;3.00;95.20;;;;;;5076189;28;25078;-57
2021/04/03 06:14:28;;;;;;;;;;;3.10;94.70;;;;;;5081486;28;25073;-57
2021/04/03 06:16:54;;;;;;;;;;;3.20;94.70;;;;;;5080679;28;25075;-58
2021/04/03 06:19:20;;;;;;;;;;;3.20;95.10;;;;;;5068151;28;20472;-58
2021/04/03 06:21:48;;;;;;;;;;;3.30;95.20;;;;;;5063161;28;25070;-57
2021/04/03 06:24:25;;;;;;;735.65;106.95;;;3.40;95.10;;;;;;5070877;28;20421;-58
2021/04/03 06:26:56;;;;;;;725.63;105.53;;;3.50;95.10;;;;;;5071076;28;20397;-57
2021/04/03 06:29:50;;;;;;;740.55;106.15;;;3.60;95.40;;;;;;5071802;28;20398;-58
2021/04/03 06:32:17;;;;;;;731.47;105.82;;;3.70;94.50;;;;;;5076097;28;20393;-57
2021/04/03 06:34:46;;;;;;;;;;;3.80;94.30;;;;;;5090669;28;20365;-57
2021/04/03 06:37:12;;;;;;;;;;;3.90;94.60;;;;;;5086983;28;20745;-58
2021/04/03 06:39:57;;;;;;;;;;;3.90;93.90;;;;;;5084776;28;20404;-57
2021/04/03 06:42:56;;;;;;;;;;;4.00;94.20;;;;;;5063494;28;25099;-58
2021/04/03 06:45:26;;;;;;;;;;;4.20;93.60;;;;;;5046593;28;25108;-58
2021/04/03 06:47:53;;;;;;;;;;;4.40;93.90;;;;;;5077545;28;25197;-58
2021/04/03 06:50:19;;;;;;;;;;;4.60;93.50;;;;;;5067047;28;25147;-58
2021/04/03 06:52:45;;;;;;;;;;;4.60;92.80;;;;;;5084111;28;20390;-57
2021/04/03 06:55:12;;;;;;;;;;;4.70;93.20;;;;;;5079718;28;25064;-58
2021/04/03 06:57:40;;;;;;;;;;;4.80;93.50;;;;;;5081945;28;20427;-57
2021/04/03 07:00:06;;;;;;;743.30;119.10;;;4.90;92.90;;;;;;5086339;28;20416;-58
2021/04/03 07:02:34;;;;;;;;;;;4.90;92.70;;;;;;5082539;28;20360;-58
2021/04/03 07:05:00;;;;;;;;;;;5.00;93.00;;;;;;5079904;28;20399;-58
2021/04/03 07:07:29;;;;;;;749.25;116.85;;;5.10;92.60;;;;;;5081669;28;20452;-57
2021/04/03 07:09:57;;;;;;;;;;;5.10;91.30;;;;;;5084045;28;20388;-58
2021/04/03 07:12:23;;;;;;;;;;;5.10;91.80;;;;;;5081693;28;25111;-58
2021/04/03 07:14:49;;;;;;;;;;;5.20;91.40;;;;;;5083240;28;25150;-58
2021/04/03 07:17:15;;;;;;;;;;;5.30;91.30;;;;;;5086285;28;20368;-57
2021/04/03 07:19:42;;;;;;;751.90;118.30;;;5.30;91.70;;;;;;5075633;28;25106;-57
2021/04/03 07:22:08;;;;;;;;;;;5.60;91.70;;;;;;5074253;28;21044;-58
2021/04/03 07:24:34;;;;;;;;;;;5.60;91.00;;;;;;5076461;28;25117;-58
2021/04/03 07:27:00;;;;;;;;;;;5.80;91.50;;;;;;5067379;28;20466;-58
2021/04/03 07:29:45;;;;;;;;;;;5.90;91.50;;;;;;5079772;28;20412;-58
2021/04/03 07:32:34;;;;;;;762.50;140.90;;;6.00;90.90;;;;;;5077295;28;20740;-58
2021/04/03 07:35:11;;;;;;;;;;;6.10;90.60;;;;;;5068190;28;20876;-58
2021/04/03 07:37:37;;;;;;;;;;;6.30;91.00;;;;;;5064397;28;20400;-59
2021/04/03 07:40:04;;;;;;;730.53;140.82;;;6.60;89.90;;;;;;5089266;28;20428;-58
2021/04/03 07:42:35;;;;;;;169.07;44.08;;;6.70;89.90;;;;;;5093198;28;20295;-58
2021/04/03 07:45:02;;;;;;;200.35;76.35;;;6.70;87.10;;;;;;5078462;28;20185;-58
2021/04/03 07:47:28;;;;;;;242.45;42.58;;;6.60;89.30;;;;;;5078733;28;20177;-58
2021/04/03 07:49:55;;;;;;;287.75;42.55;;;6.90;89.20;;;;;;5085437;28;20177;-57
2021/04/03 07:52:56;;;;;;;202.82;39.10;;;6.80;89.80;;;;;;5083952;28;20166;-58
2021/04/03 07:55:34;;;;;;;237.13;40.42;;;7.00;89.70;;;;;;5050322;28;20179;-58
2021/04/03 07:58:18;;;;;;;267.70;41.58;;;7.20;86.40;;;;;;5074630;28;20513;-57
2021/04/03 08:00:46;;;;;;;317.80;45.80;;;7.40;87.00;;;;;;5085340;28;20212;-58
2021/04/03 08:03:12;;;;;;;338.67;46.38;;;7.50;84.10;;;;;;5076107;28;20182;-56
2021/04/03 08:05:38;;;;;;;460.02;54.22;;;7.90;83.90;;;;;;5087978;28;20551;-58
2021/04/03 08:08:05;;;;;;;550.70;67.18;;;8.00;82.90;;;;;;5078085;28;20652;-58
2021/04/03 08:10:31;;;;;;;611.90;92.82;;;8.40;82.60;;;;;;5075404;28;20201;-58
2021/04/03 08:12:58;;;;;;;568.35;107.10;;;8.90;83.20;;;;;;5088496;28;20601;-58
2021/04/03 08:15:24;;;;;;;714.80;117.43;;;9.30;78.80;;;;;;5063993;28;20181;-58
2021/04/03 08:17:53;;;;;;;802.28;253.60;;;9.90;81.60;;;;;;5073497;28;20906;-59
2021/04/03 08:20:20;;;;;;;821.75;314.75;;;10.10;76.90;;;;;;5073490;28;20900;-59
2021/04/03 08:23:03;;;;;;;829.00;355.23;;;10.00;76.70;;;;;;5077185;28;20747;-59
2021/04/03 08:25:29;;;;;;;832.58;373.15;;;10.10;76.30;;;;;;5090634;28;20403;-59
2021/04/03 08:27:57;;;;;;;840.50;398.67;;;10.20;76.00;;;;;;5079036;28;20393;-59
2021/04/03 08:30:30;;;;;;;853.00;453.20;;;10.20;75.80;;;;;;5080309;28;20494;-59
2021/04/03 08:33:07;;;;;;;857.83;482.52;;;10.90;74.90;;;;;;5092704;28;20988;-59
2021/04/03 08:35:34;;;;;;;859.85;496.33;;;10.60;71.80;;;;;;5082789;28;20394;-59
2021/04/03 08:38:15;;;;;;;617.47;338.25;;;11.00;73.70;;;;;;5093245;28;20185;-59
2021/04/03 08:40:42;;;;;;;724.15;293.65;;;11.00;73.30;;;;;;5076295;28;20205;-59
2021/04/03 08:43:08;;;;;;;766.50;261.23;;;11.40;73.90;;;;;;5082586;28;20177;-59
2021/04/03 08:45:38;;;;;;;839.47;450.50;;;11.80;72.30;;;;;;5079335;28;20742;-60
2021/04/03 08:48:07;;;;;;;865.03;538.28;;;12.00;71.10;;;;;;5080600;28;20415;-60
2021/04/03 08:50:33;;;;;;;869.60;574.53;;;12.00;70.00;;;;;;5078465;28;20969;-59
2021/04/03 08:53:00;;;;;;;871.35;578.28;;;12.30;70.10;;;;;;5072642;28;20870;-60
2021/04/03 08:55:27;;;;;;;693.67;463.00;;;11.90;70.70;;;;;;5088416;28;20397;-59
2021/04/03 08:57:53;;;;;;;678.88;421.17;;;12.40;70.50;;;;;;5081585;28;20287;-60
2021/04/03 09:00:20;;;;;;;801.83;377.10;;;12.40;68.20;;;;;;5085418;28;20701;-59
2021/04/03 09:02:47;;;;;;;793.55;362.25;;;12.50;69.00;;;;;;5077322;28;20552;-59
2021/04/03 09:05:14;;;;;;;843.13;478.33;;;12.50;70.40;;;;;;5062339;28;20392;-59
2021/04/03 09:07:41;;;;;;;842.70;482.63;;;12.50;69.30;;;;;;5082122;28;20376;-59
2021/04/03 09:10:12;;;;;;;839.30;484.15;;;12.40;66.20;;;;;;5085280;28;20409;-58
2021/04/03 09:12:38;;;;;;;841.53;484.67;;;11.60;66.20;;;;;;5060613;28;20402;-55
2021/04/03 09:15:06;;;;;;;;;;;11.90;66.60;;;;;;5081178;28;20380;-56
2021/04/03 09:17:32;;;;;;;882.60;610.63;;;12.50;68.00;;;;;;5091321;28;20383;-56
2021/04/03 09:20:13;;;;;;;909.53;687.90;;;13.50;65.40;;;;;;5083337;28;20410;-56
2021/04/03 09:22:41;;;;;;;917.83;707.90;;;14.00;63.00;;;;;;5086068;28;20384;-56
2021/04/03 09:25:08;;;;;;;919.95;734.28;;;13.20;61.80;;;;;;5087789;28;20386;-57
2021/04/03 09:27:35;;;;;;;633.85;564.47;;;13.40;64.80;;;;;;5077046;28;20213;-56
2021/04/03 09:30:11;;;;;;;645.88;513.20;;;13.00;63.90;;;;;;5088449;28;20213;-57
2021/04/03 09:32:44;;;;;;;674.60;436.67;;;13.60;64.30;;;;;;5081721;28;20173;-57
2021/04/03 09:35:12;;;;;;;641.20;364.35;;;12.90;62.40;;;;;;5073337;28;20173;-56
2021/04/03 09:37:38;;;;;;;748.95;299.30;;;12.60;62.20;;;;;;5080171;28;20177;-57
2021/04/03 09:40:08;;;;;;;773.78;264.65;;;11.90;63.00;;;;;;5074657;28;20672;-57
2021/04/03 09:42:34;;;;;;;826.40;365.15;;;11.40;64.80;;;;;;5090802;28;20401;-59
2021/04/03 09:45:03;;;;;;;815.10;328.08;;;10.70;63.60;;;;;;5085499;28;20400;-58
2021/04/03 09:47:29;;;;;;;806.55;305.08;;;10.90;66.30;;;;;;5080103;28;20402;-58
2021/04/03 09:49:55;;;;;;;805.50;316.63;;;11.10;62.60;;;;;;5086974;28;20388;-57
2021/04/03 09:52:21;;;;;;;821.20;373.58;;;11.70;64.50;;;;;;5096174;28;20479;-58
2021/04/03 09:54:48;;;;;;;824.63;398.13;;;12.80;63.10;;;;;;5091857;28;20860;-58
2021/04/03 09:57:14;;;;;;;822.55;397.30;;;12.80;61.60;;;;;;5092107;28;20380;-58
2021/04/03 09:59:41;;;;;;;820.00;378.90;;;12.50;61.40;;;;;;5111540;28;20999;-58
2021/04/03 10:02:07;;;;;;;815.40;371.35;;;11.60;61.10;;;;;;5111252;28;20374;-59
2021/04/03 10:04:34;;;;;;;823.60;401.70;;;12.60;63.60;;;;;;5109257;28;20413;-59
2021/04/03 10:07:00;;;;;;;;;;;13.00;59.80;;;;;;5087339;28;20360;-59
2021/04/03 10:09:26;;;;;;;;;;;13.10;61.20;;;;;;5082861;28;20784;-58
2021/04/03 10:11:52;;;;;;;;;;;12.50;58.70;;;;;;5077023;28;25142;-57
2021/04/03 10:14:18;;;;;;;819.90;408.20;;;12.30;61.80;;;;;;5078831;28;25070;-58
2021/04/03 10:16:44;;;;;;;809.00;352.70;;;12.20;60.80;;;;;;5070770;28;20398;-58
2021/04/03 10:19:10;;;;;;;;;;;10.90;60.30;;;;;;5076061;28;20396;-56
2021/04/03 10:21:36;;;;;;;784.05;268.45;;;10.40;61.60;;;;;;5068412;28;25122;-58
2021/04/03 10:24:04;;;;;;;792.50;274.00;;;10.40;63.90;;;;;;5069306;28;20902;-57
2021/04/03 10:26:30;;;;;;;789.97;252.10;;;10.30;61.30;;;;;;5078956;28;20428;-58
2021/04/03 10:28:56;;;;;;;772.30;218.10;;;10.00;61.20;;;;;;5076374;28;20467;-57
2021/04/03 10:31:22;;;;;;;;;;;9.90;61.10;;;;;;5079663;28;20430;-57
2021/04/03 10:33:48;;;;;;;;;;;10.20;60.90;;;;;;5078162;28;20398;-55
2021/04/03 10:36:15;;;;;;;790.95;245.00;;;10.20;60.70;;;;;;5080344;28;20432;-53
2021/04/03 10:38:44;;;;;;;793.80;264.92;;;11.10;64.70;;;;;;5069692;28;20390;-57
2021/04/03 10:41:11;;;;;;;806.45;308.33;;;11.50;62.50;;;;;;5076209;28;20404;-58
2021/04/03 10:43:37;;;;;;;814.08;346.85;;;12.20;60.90;;;;;;5078769;28;20390;-57
2021/04/03 10:46:03;;;;;;;815.63;378.45;;;13.50;62.70;;;;;;5076767;28;20762;-58
2021/04/03 10:48:29;;;;;;;821.92;395.15;;;12.90;56.70;;;;;;5081983;28;20452;-58
2021/04/03 10:50:55;;;;;;;817.08;376.63;;;12.30;58.60;;;;;;5082421;28;20392;-57
2021/04/03 10:53:21;;;;;;;822.20;398.92;;;12.30;58.20;;;;;;5090765;28;20380;-58
2021/04/03 10:55:48;;;;;;;810.70;367.38;;;12.60;56.70;;;;;;5082926;28;20389;-57
2021/04/03 10:58:15;;;;;;;812.10;372.70;;;12.30;58.00;;;;;;5079627;28;20396;-57
2021/04/03 11:00:41;;;;;;;831.60;431.42;;;12.90;57.60;;;;;;5081696;28;20420;-57
2021/04/03 11:03:07;;;;;;;;;;;13.50;57.60;;;;;;5081639;28;20394;-56
2021/04/03 11:05:33;;;;;;;;;;;12.50;57.50;;;;;;5077898;28;20373;-57
2021/04/03 11:07:59;;;;;;;;;;;13.10;58.60;;;;;;5084518;28;20280;-56
2021/04/03 11:10:25;;;;;;;;;;;13.30;57.60;;;;;;5085834;28;20007;-57
2021/04/03 11:12:51;;;;;;;;;;;13.30;56.90;;;;;;5085104;28;19969;-58
2021/04/03 11:15:17;;;;;;;;;;;12.80;56.10;;;;;;5076033;28;19919;-57
2021/04/03 11:17:43;;;;;;;;;;;14.00;58.40;;;;;;5107735;28;19908;-58
2021/04/03 11:20:10;;;;;;;848.27;504.23;;;14.70;56.30;;;;;;5116291;28;20439;-59
2021/04/03 11:22:37;;;;;;;845.67;508.40;;;15.10;56.20;;;;;;5096840;28;20882;-59
2021/04/03 11:25:04;;;;;;;;;;;15.10;57.10;;;;;;5116988;27;20083;-58
2021/04/03 11:27:30;;;;;;;678.33;407.25;;;16.00;57.10;;;;;;5100766;28;20323;-59
2021/04/03 11:29:56;;;;;;;;;;;15.80;53.60;;;;;;5090649;28;20542;-59
2021/04/03 11:32:22;;;;;;;;;;;17.10;54.60;;;;;;5075645;28;19977;-58
2021/04/03 11:34:48;;;;;;;795.13;399.42;;;16.20;52.80;;;;;;5075830;28;20353;-58
2021/04/03 11:37:14;;;;;;;862.17;569.55;;;15.90;53.60;;;;;;5083789;28;20390;-59
2021/04/03 11:39:40;;;;;;;;;;;15.70;52.60;;;;;;5082431;28;20361;-59
2021/04/03 11:42:07;;;;;;;;;;;17.00;54.60;;;;;;5080739;28;20373;-58
2021/04/03 11:44:33;;;;;;;850.30;547.30;;;17.00;52.80;;;;;;5075095;28;19909;-58
2021/04/03 11:46:59;;;;;;;852.15;556.30;;;16.50;51.00;;;;;;5078024;28;20374;-59
2021/04/03 11:49:25;;;;;;;;;;;16.10;51.70;;;;;;5074988;28;20405;-58
2021/04/03 11:51:51;;;;;;;;;;;16.60;55.00;;;;;;5087180;28;19908;-57
2021/04/03 11:54:17;;;;;;;;;;;17.10;51.90;;;;;;5080214;28;19946;-58
2021/04/03 11:56:44;;;;;;;;;;;17.30;54.10;;;;;;5082771;28;19908;-58
2021/04/03 11:59:10;;;;;;;;;;;18.30;52.00;;;;;;5081665;28;19912;-59
2021/04/03 12:01:36;;;;;;;;;;;18.60;52.50;;;;;;5091333;28;20368;-59
2021/04/03 12:04:02;;;;;;;;;;;18.70;49.80;;;;;;5086976;28;19947;-59
2021/04/03 12:06:28;;;;;;;;;;;19.20;48.80;;;;;;5083349;28;19908;-59
2021/04/03 12:08:54;;;;;;;762.00;592.20;;;19.20;50.00;;;;;;5080159;28;19912;-59
2021/04/03 12:11:20;;;;;;;826.83;525.83;;;18.30;49.00;;;;;;5085991;28;20177;-60
2021/04/03 12:13:46;;;;;;;861.50;595.30;;;17.50;47.30;;;;;;5073911;28;20924;-56
2021/04/03 12:16:12;;;;;;;;;;;15.70;48.10;;;;;;5090579;28;20403;-57
2021/04/03 12:18:38;;;;;;;;;;;17.20;49.20;;;;;;5094028;28;19924;-57
2021/04/03 12:21:04;;;;;;;;;;;18.30;49.80;;;;;;5087565;28;19916;-56
2021/04/03 12:23:31;;;;;;;;;;;18.10;47.90;;;;;;5090296;28;19918;-57
2021/04/03 12:25:57;;;;;;;;;;;17.60;48.60;;;;;;5091267;28;19915;-58
2021/04/03 12:28:23;;;;;;;;;;;17.80;47.20;;;;;;5074904;28;19931;-56
2021/04/03 12:30:48;;;;;;;;;;;15.90;50.00;;;;;;5093941;28;20269;-55
2021/04/03 12:33:14;;;;;;;;;;;15.40;52.40;;;;;;5078484;28;20388;-57
2021/04/03 12:35:40;;;;;;;816.60;415.30;;;13.90;55.90;;;;;;5072585;28;20770;-57
2021/04/03 12:38:07;;;;;;;805.85;380.55;;;13.70;55.60;;;;;;5076064;28;20419;-57
2021/04/03 12:40:33;;;;;;;809.70;376.30;;;14.10;57.10;;;;;;5079496;28;20442;-56
2021/04/03 12:42:59;;;;;;;797.97;330.95;;;13.40;55.60;;;;;;5074216;28;20374;-56
2021/04/03 12:45:25;;;;;;;795.30;309.10;;;12.60;58.00;;;;;;5077217;28;20421;-56
2021/04/03 12:47:51;;;;;;;798.30;312.20;;;12.30;59.20;;;;;;5069059;28;20405;-55
2021/04/03 12:50:17;;;;;;;788.50;274.00;;;13.50;59.00;;;;;;5071557;28;20394;-55
2021/04/03 12:52:43;;;;;;;;;;;11.60;59.20;;;;;;5087428;28;20877;-55
2021/04/03 12:55:10;;;;;;;779.10;242.40;;;10.80;60.90;;;;;;5087644;28;20414;-55
2021/04/03 12:57:36;;;;;;;;;;;10.70;60.80;;;;;;5084550;28;20393;-55
2021/04/03 13:00:03;;;;;;;;;;;10.60;63.50;;;;;;5085701;28;25125;-53
2021/04/03 13:02:29;;;;;;;774.50;217.40;;;11.00;65.50;;;;;;5089383;28;20397;-55
2021/04/03 13:04:55;;;;;;;770.30;207.50;;;10.80;63.30;;;;;;5077499;28;20818;-56
2021/04/03 13:07:21;;;;;;;;;;;11.30;65.20;;;;;;5087650;28;20413;-55
2021/04/03 13:09:47;;;;;;;767.20;208.30;;;11.70;61.30;;;;;;5089391;28;20403;-56
2021/04/03 13:12:13;;;;;;;;;;;12.00;61.40;;;;;;5079581;28;20927;-55
2021/04/03 13:14:39;;;;;;;;;;;12.50;61.10;;;;;;5070088;28;20401;-57
2021/04/03 13:17:05;;;;;;;767.70;211.70;;;11.40;59.30;;;;;;5069188;28;25147;-57
2021/04/03 13:19:31;;;;;;;;;;;11.50;59.30;;;;;;5075930;28;20396;-58
2021/04/03 13:21:57;;;;;;;770.75;202.98;;;11.00;60.90;;;;;;5076432;28;20617;-58
2021/04/03 13:24:23;;;;;;;413.05;79.45;;;11.60;61.30;;;;;;5081148;28;20173;-57
2021/04/03 13:26:49;;;;;;;486.05;66.05;;;12.20;60.60;;;;;;5077334;28;20205;-58
2021/04/03 13:29:16;;;;;;;546.42;69.18;;;11.80;59.50;;;;;;5071644;28;20214;-57
2021/04/03 13:31:42;;;;;;;778.17;223.20;;;11.40;59.90;;;;;;5072310;28;20401;-56